• Join FlightAware (Why Join?)
  • Login
  • US Flag 
01:26AM EDT


 

Airport Tracker/Info


-or-


 

Live Flight TrackerFlight Track Log ✈ N931FR ✈ 24-Aug-2013 ✈ KPHX - KDEN

Flight Track Log - Related Links

Times and Time Zones

All times are in EDT time to prevent confusion due to time zone crossing. See the N931FR flight status page for this flight to view local times or setup timezone preferences in your user account.

Time Position Orientation Groundspeed Altitude Reporting Facility
EDT Latitude Longitude Course Direction KTS MPH feet Rate Location/Type
12:43PM 33.4300 -112.0340 266° West 162 186 1,900  Level FlightAware
12:43PM 33.4300 -112.0560 270° West 168 193 2,600 1,500 Climbing FlightAware
12:44PM 33.4300 -112.0760 270° West 191 220 3,000 1,320 Climbing FlightAware
12:44PM 33.4300 -112.0990 270° West 214 246 3,500 1,320 Climbing FlightAware
12:44PM 33.4310 -112.1250 273° West 244 281 3,900 1,200 Climbing FlightAware
12:45PM 33.4320 -112.1590 272° West 275 316 4,400 1,500 Climbing FlightAware
12:45PM 33.4360 -112.1770 285° West 287 330 4,800 2,220 Climbing FlightAware
12:45PM 33.4390 -112.1830 301° West 288 331 5,000 3,000 Climbing FlightAware
12:45PM 33.4470 -112.1940 311° West 289 333 5,500 3,000 Climbing FlightAware
12:45PM 33.4520 -112.1980 326° Northwest 288 331 5,700 3,480 Climbing FlightAware
12:46PM 33.4620 -112.2040 333° Northwest 285 328 6,200 3,480 Climbing FlightAware
12:46PM 33.4720 -112.2060 351° North 282 325 6,700 3,180 Climbing FlightAware
12:46PM 33.5020 -112.1990 11° North 280 322 7,900 2,700 Climbing FlightAware
12:46PM 33.5150 -112.1890 33° Northeast 285 328 8,300 2,340 Climbing FlightAware
12:47PM 33.5330 -112.1740 35° Northeast 289 333 9,000 2,820 Climbing FlightAware
12:47PM 33.5550 -112.1560 34° Northeast 291 335 10,000 1,980 Climbing FlightAware
12:47PM 33.5970 -112.1200 36° Northeast 323 372 10,900 1,920 Climbing FlightAware
12:48PM 33.6360 -112.0860 36° Northeast 336 387 12,200 2,340 Climbing FlightAware
12:49PM 33.6840 -112.0460 35° Northeast 345 397 13,600 2,220 Climbing FlightAware
12:49PM 33.7280 -112.0080 36° Northeast 355 409 14,800 2,100 Climbing FlightAware
12:50PM 33.7790 -111.9640 36° Northeast 367 422 16,100 1,980 Climbing FlightAware
12:50PM 33.8280 -111.9220 35° Northeast 378 435 17,200 1,860 Climbing FlightAware
12:51PM 33.8790 -111.8780 36° Northeast 387 445 18,300 1,800 Climbing FlightAware
12:52PM 33.9320 -111.8330 35° Northeast 395 455 19,400 1,740 Climbing FlightAware
12:52PM 33.9820 -111.7890 36° Northeast 401 461 20,400 2,040 Climbing FlightAware
12:53PM 34.0300 -111.7480 35° Northeast 394 453 21,700 1,440 Climbing FlightAware
12:53PM 34.0840 -111.6930 40° Northeast 420 483 22,100 900 Climbing FlightAware
12:54PM 34.1330 -111.6370 43° Northeast 433 498 22,800 1,320 Climbing FlightAware
12:54PM 34.1820 -111.5820 43° Northeast 440 506 23,600 1,320 Climbing FlightAware
12:55PM 34.2340 -111.5220 44° Northeast 450 518 24,300 1,200 Climbing FlightAware
12:56PM 34.2890 -111.4590 43° Northeast 457 526 25,100 1,320 Climbing FlightAware
12:56PM 34.3430 -111.3980 43° Northeast 464 534 25,900 1,380 Climbing FlightAware
12:57PM 34.4000 -111.3320 44° Northeast 465 535 26,800 1,440 Climbing FlightAware
12:57PM 34.4580 -111.2670 43° Northeast 468 539 27,700 1,380 Climbing FlightAware
12:58PM 34.5150 -111.2010 44° Northeast 473 544 28,500 1,320 Climbing FlightAware
12:59PM 34.5640 -111.1440 44° Northeast 473 544 29,200 1,140 Climbing FlightAware
12:59PM 34.6200 -111.0800 43° Northeast 476 548 29,800 1,080 Climbing FlightAware
01:00PM 34.6800 -111.0100 44° Northeast 481 554 30,500 1,020 Climbing FlightAware
01:00PM 34.7260 -110.9570 43° Northeast 483 556 31,000 1,200 Climbing FlightAware
01:01PM 34.7910 -110.8820 43° Northeast 483 556 31,900 1,200 Climbing FlightAware
01:01PM 34.8440 -110.8200 44° Northeast 483 556 32,500 1,260 Climbing FlightAware
01:02PM 34.9020 -110.7520 44° Northeast 478 550 33,400 1,380 Climbing FlightAware
01:03PM 34.9530 -110.6920 44° Northeast 478 550 34,100 1,200 Climbing FlightAware
01:03PM 35.0180 -110.6170 43° Northeast 474 545 34,900 1,260 Climbing FlightAware
01:04PM 35.0630 -110.5640 44° Northeast 472 543 35,600 1,140 Climbing FlightAware
01:04PM 35.1090 -110.5090 44° Northeast 470 541 36,100 900 Climbing FlightAware
01:05PM 35.1720 -110.4350 44° Northeast 470 541 36,700 720 Climbing FlightAware
01:05PM 35.2300 -110.3670 44° Northeast 468 539 37,000 240 Climbing FlightAware
01:06PM 35.2900 -110.2960 44° Northeast 470 541 37,000  Level FlightAware
01:07PM 35.3360 -110.2420 44° Northeast 470 541 37,000  Level FlightAware
01:07PM 35.4050 -110.1590 44° Northeast 470 541 37,000  Level FlightAware
01:08PM 35.4630 -110.0910 44° Northeast 468 539 37,000  Level FlightAware
01:09PM 35.5210 -110.0220 44° Northeast 468 539 37,000  Level FlightAware
01:09PM 35.5690 -109.9650 44° Northeast 467 537 37,000  Level FlightAware
01:10PM 35.6260 -109.8960 45° Northeast 468 539 37,000  Level FlightAware
01:10PM 35.6750 -109.8360 45° Northeast 467 537 37,000  Level FlightAware
01:11PM 35.7240 -109.7620 51° Northeast 468 539 37,000  Level FlightAware
01:11PM 35.7730 -109.6840 52° Northeast 468 539 37,000  Level FlightAware
01:12PM 35.8140 -109.6190 52° Northeast 469 540 37,000 300 Level FlightAware
01:13PM 35.8660 -109.5350 53° Northeast 473 544 37,400 480 Climbing FlightAware
01:13PM 35.9130 -109.4610 52° Northeast 478 550 37,600 540 Climbing FlightAware
01:14PM 35.9560 -109.3930 52° Northeast 477 549 38,000 600 Climbing FlightAware
01:14PM 36.0070 -109.3100 53° Northeast 478 550 38,300 360 Climbing FlightAware
01:15PM 36.0750 -109.2020 52° Northeast 478 550 38,600 180 Climbing FlightAware
01:16PM 36.1160 -109.1360 52° Northeast 478 550 38,600  Level FlightAware
01:16PM 36.1580 -109.0700 52° Northeast 478 550 38,600  Level FlightAware
01:17PM 36.2010 -109.0020 52° Northeast 478 550 38,600  Level FlightAware
01:18PM 36.2420 -108.9360 52° Northeast 478 550 38,600 300 Level FlightAware
01:18PM 36.3160 -108.8110 54° Northeast 475 547 39,000 360 Climbing FlightAware
01:19PM 36.3550 -108.7480 52° Northeast 474 545 39,000  Level FlightAware
01:20PM 36.4597 -108.5772 52° Northeast 472 543 39,000  Level Albuquerque Center
01:21PM 36.5350 -108.4519 53° Northeast 469 540 39,000  Level Denver Center
01:22PM 36.6111 -108.3272 53° Northeast 472 543 39,000  Level Denver Center
01:23PM 36.6997 -108.1800 53° Northeast 475 547 39,000  Level Denver Center
01:24PM 36.7844 -108.0631 48° Northeast 475 547 39,100  Climbing Denver Center
01:25PM 36.8983 -107.9522 38° Northeast 463 533 39,000 -60 Descending Denver Center
01:26PM 36.9953 -107.8536 39° Northeast 468 539 39,000  Level Denver Center
01:27PM 37.1086 -107.7419 38° Northeast 466 536 39,000  Level Denver Center
01:28PM 37.2044 -107.6450 39° Northeast 463 533 39,000  Level Denver Center
01:29PM 37.3186 -107.5344 38° Northeast 463 533 39,000  Level Denver Center
01:30PM 37.4156 -107.4347 39° Northeast 469 540 39,000  Level Denver Center
01:31PM 37.5292 -107.3197 39° Northeast 469 540 39,100  Climbing Denver Center
01:32PM 37.6264 -107.2206 39° Northeast 469 540 39,000 -60 Descending Denver Center
01:34PM 37.7381 -107.1067 39° Northeast 464 534 39,000  Level Denver Center
01:35PM 37.8356 -107.0061 39° Northeast 461 531 39,000  Level Denver Center
01:36PM 37.9314 -106.9092 39° Northeast 462 532 39,000  Level Denver Center
01:37PM 38.0419 -106.7942 39° Northeast 462 532 39,000  Level Denver Center
01:38PM 38.1375 -106.6961 39° Northeast 461 531 39,000 -660 Level Denver Center
01:43PM 38.6580 -106.0680 39° Northeast 477 549 35,000 -720 Descending FlightAware
01:44PM 38.7090 -106.0040 44° Northeast 475 547 34,900 -1,500 Descending FlightAware
01:44PM 38.7680 -105.9300 44° Northeast 477 549 33,300 -3,720 Descending FlightAware
01:45PM 38.8220 -105.8620 44° Northeast 504 580 30,500 -3,480 Descending FlightAware
01:45PM 38.8810 -105.7870 45° Northeast 482 555 29,300 -2,160 Descending FlightAware
01:46PM 38.9310 -105.7230 45° Northeast 470 541 28,100 -2,520 Descending FlightAware
01:46PM 38.9880 -105.6510 44° Northeast 452 520 26,400 -3,000 Descending FlightAware
01:47PM 39.0410 -105.5830 45° Northeast 439 505 24,400 -3,480 Descending FlightAware
01:48PM 39.1200 -105.4820 45° Northeast 417 480 21,100 -3,060 Descending FlightAware
01:49PM 39.1620 -105.4280 45° Northeast 387 445 19,900 -2,520 Descending FlightAware
01:49PM 39.2070 -105.3700 45° Northeast 391 450 18,300 -1,800 Descending FlightAware
01:50PM 39.2620 -105.2820 51° Northeast 355 409 17,400 -1,080 Descending FlightAware
01:50PM 39.2660 -105.2600 77° East 353 406 17,200 -1,140 Descending FlightAware
01:50PM 39.2680 -105.2500 76° East 345 397 17,100 -1,740 Descending FlightAware
01:50PM 39.2710 -105.2340 76° East 343 395 16,800 -2,040 Descending FlightAware
01:51PM 39.2750 -105.2130 76° East 341 392 16,500 -1,860 Descending FlightAware
01:51PM 39.2760 -105.2090 72° East 341 392 16,400 -2,400 Descending FlightAware
01:51PM 39.2770 -105.2030 78° East 340 391 16,300 -2,040 Descending FlightAware
01:51PM 39.2800 -105.1850 78° East 338 389 16,000 -1,800 Descending FlightAware
01:51PM 39.2840 -105.1640 76° East 338 389 15,700 -1,620 Descending FlightAware
01:51PM 39.2880 -105.1450 75° East 337 388 15,500 -1,440 Descending FlightAware
01:51PM 39.2910 -105.1300 76° East 336 387 15,300 -1,500 Descending FlightAware
01:51PM 39.2920 -105.1220 81° East 336 387 15,200 -1,320 Descending FlightAware
01:52PM 39.2960 -105.1030 75° East 333 383 15,000 -1,500 Descending FlightAware
01:52PM 39.2980 -105.0910 78° East 331 381 14,800 -1,140 Descending FlightAware
01:52PM 39.3000 -105.0830 72° East 330 380 14,800 -840 Level FlightAware
01:52PM 39.3030 -105.0660 77° East 327 376 14,600 -1,140 Descending FlightAware
01:52PM 39.3040 -105.0600 78° East 325 374 14,600 -480 Level FlightAware
01:52PM 39.3080 -105.0390 76° East 317 365 14,500 -600 Descending FlightAware
01:52PM 39.3110 -105.0240 76° East 313 360 14,400 -540 Descending FlightAware
01:52PM 39.3120 -105.0180 78° East 312 359 14,400 -1,020 Level FlightAware
01:52PM 39.3140 -105.0040 80° East 311 358 14,200 -1,500 Descending FlightAware
01:53PM 39.3170 -104.9890 76° East 309 356 14,000 -1,140 Descending FlightAware
01:53PM 39.3200 -104.9750 75° East 305 351 13,900 -600 Descending FlightAware
01:53PM 39.3200 -104.9720 90° East 305 351 13,900  Level FlightAware
01:53PM 39.3220 -104.9620 76° East 301 346 13,900 -720 Level FlightAware
01:53PM 39.3280 -104.9400 71° East 299 344 13,700 -900 Descending FlightAware
01:53PM 39.3330 -104.9280 62° Northeast 298 343 13,600 -1,020 Descending FlightAware
01:53PM 39.3370 -104.9210 54° Northeast 298 343 13,500 -1,020 Descending FlightAware
01:53PM 39.3420 -104.9090 62° Northeast 295 339 13,400 -1,080 Descending FlightAware
01:54PM 39.3650 -104.8610 58° Northeast 295 339 12,800 -1,260 Descending FlightAware
01:54PM 39.3890 -104.8150 56° Northeast 294 338 12,100 -1,260 Descending FlightAware
01:55PM 39.4030 -104.8020 36° Northeast 295 339 11,900 -1,260 Descending FlightAware
01:55PM 39.4450 -104.7720 29° Northeast 292 336 11,100 -1,380 Descending FlightAware
01:56PM 39.4880 -104.7410 29° Northeast 288 331 10,300 -1,320 Descending FlightAware
01:56PM 39.5100 -104.7250 29° Northeast 285 328 9,900 -600 Descending FlightAware
01:56PM 39.5310 -104.7110 27° Northeast 273 314 9,900  Level FlightAware
01:57PM 39.5590 -104.6900 30° Northeast 256 295 9,900  Level FlightAware
01:57PM 39.5710 -104.6810 30° Northeast 256 295 9,900  Level FlightAware
01:57PM 39.5840 -104.6720 28° Northeast 260 299 9,900 -180 Level FlightAware
01:58PM 39.6120 -104.6540 26° Northeast 261 300 9,800 -420 Descending FlightAware
01:58PM 39.6340 -104.6470 14° North 257 296 9,600 -900 Descending FlightAware
01:58PM 39.6440 -104.6450 North 255 293 9,400 -1,320 Descending FlightAware
01:59PM 39.6710 -104.6440 North 232 267 8,900 -1,440 Descending FlightAware
01:59PM 39.6950 -104.6430 North 220 253 8,300 -1,560 Descending FlightAware
01:59PM 39.7060 -104.6430 360° North 215 247 8,000 -1,680 Descending FlightAware
02:00PM 39.7310 -104.6430 360° North 202 232 7,300 -1,620 Descending FlightAware
02:00PM 39.7490 -104.6430 360° North 192 221 6,800 -1,380 Descending FlightAware
02:00PM 39.7670 -104.6430 360° North 179 206 6,400 -1,080 Descending FlightAware
02:00PM 39.7770 -104.6420 North 163 188 6,200 -840 Descending FlightAware
02:01PM 39.7930 -104.6420 360° North 154 177 5,900 -720 Descending FlightAware
02:01PM 39.8010 -104.6420 360° North 153 176 5,800 -600 Descending FlightAware
02:01PM 39.8150 -104.6420 360° North 150 173 5,600 -840 Descending FlightAware
02:02PM 39.8270 -104.6420 360° North 150 173 5,300 -420 Descending FlightAware
02:02PM 39.8460 -104.6410 North 150 173 5,300  Level FlightAware